Time;durP1;ratioP1;P1;durP2;ratioP2;P2;SDS_P1;SDS_P2;PMS_P1;PMS_P2;Temp;Humidity;BMP_temperature;BMP_pressure;BME280_temperature;BME280_humidity;BME280_pressure;Samples;Min_cycle;Max_cycle;Signal;HPM_P1;HPM_P2
2022/11/12 00:00:22;;;;;;;0.20;0.20;;;9.00;99.90;;;;;;5051373;28;20114;-64
2022/11/12 00:02:47;;;;;;;0.30;0.30;;;8.90;99.90;;;;;;5065215;28;20076;-64
2022/11/12 00:05:13;;;;;;;0.57;0.57;;;8.90;99.90;;;;;;5071607;28;20239;-64
2022/11/12 00:07:38;;;;;;;0.57;0.57;;;8.80;99.90;;;;;;5061701;28;20123;-64
2022/11/12 00:10:05;;;;;;;1.83;1.73;;;8.80;99.90;;;;;;5057085;28;20044;-64
2022/11/12 00:12:30;;;;;;;0.10;0.10;;;8.80;99.90;;;;;;5071288;28;20086;-64
2022/11/12 00:14:56;;;;;;;0.28;0.28;;;8.90;99.90;;;;;;5062410;28;20079;-64
2022/11/12 00:17:22;;;;;;;0.40;0.40;;;8.80;99.90;;;;;;5059825;28;20048;-64
2022/11/12 00:19:48;;;;;;;0.10;0.10;;;8.70;99.90;;;;;;5051094;28;20377;-64
2022/11/12 00:22:13;;;;;;;0.20;0.20;;;8.60;99.90;;;;;;5065603;28;20606;-64
2022/11/12 00:24:39;;;;;;;0.70;0.70;;;8.60;99.90;;;;;;5061243;28;20048;-64
2022/11/12 00:27:04;;;;;;;0.10;0.10;;;8.50;99.90;;;;;;5058178;28;20493;-64
2022/11/12 00:29:30;;;;;;;1.15;1.13;;;8.50;99.90;;;;;;5033377;28;20047;-64
2022/11/12 00:31:55;;;;;;;0.65;0.65;;;8.50;99.90;;;;;;5042008;28;20105;-64
2022/11/12 00:34:21;;;;;;;1.15;0.65;;;8.50;99.90;;;;;;5051091;28;20060;-64
2022/11/12 00:36:47;;;;;;;0.73;0.73;;;8.50;99.90;;;;;;5050320;28;20052;-64
2022/11/12 00:39:12;;;;;;;1.27;1.02;;;8.50;99.90;;;;;;5051546;28;20040;-64
2022/11/12 00:41:38;;;;;;;1.48;0.95;;;8.50;99.90;;;;;;5056007;28;20388;-64
2022/11/12 00:44:04;;;;;;;0.13;0.13;;;8.40;99.90;;;;;;5050309;28;20041;-64
2022/11/12 00:46:29;;;;;;;0.45;0.45;;;8.50;99.90;;;;;;5057905;28;20047;-64
2022/11/12 00:48:55;;;;;;;1.10;0.70;;;8.40;99.90;;;;;;5033019;28;20040;-64
2022/11/12 00:51:21;;;;;;;0.65;0.65;;;8.50;99.90;;;;;;5049491;28;20052;-64
2022/11/12 00:53:50;;;;;;;0.10;0.10;;;8.50;99.90;;;;;;5051946;28;20550;-64
2022/11/12 00:56:15;;;;;;;1.08;0.70;;;8.50;99.90;;;;;;5059525;28;20483;-64
2022/11/12 00:58:41;;;;;;;0.28;0.28;;;8.40;99.90;;;;;;5062908;28;20037;-64
2022/11/12 01:01:10;;;;;;;2.63;0.75;;;8.30;99.90;;;;;;5053467;28;20045;-64
2022/11/12 01:03:37;;;;;;;0.50;0.50;;;8.40;99.90;;;;;;5050550;28;20044;-64
2022/11/12 01:06:15;;;;;;;0.38;0.38;;;8.40;99.90;;;;;;5067543;28;20044;-64
2022/11/12 01:08:41;;;;;;;0.30;0.30;;;8.40;99.90;;;;;;5054775;28;20037;-64
2022/11/12 01:11:11;;;;;;;1.13;1.02;;;8.50;99.90;;;;;;5060400;28;20105;-64
2022/11/12 01:13:40;;;;;;;0.20;0.20;;;8.50;99.90;;;;;;5064923;28;20029;-64
2022/11/12 01:16:21;;;;;;;0.43;0.43;;;8.60;99.90;;;;;;5058350;28;20048;-64
2022/11/12 01:18:50;;;;;;;0.10;0.10;;;8.50;99.90;;;;;;5048664;28;20041;-64
2022/11/12 01:21:16;;;;;;;0.43;0.43;;;8.50;99.90;;;;;;5054837;28;20099;-64
2022/11/12 01:23:42;;;;;;;0.75;0.75;;;8.50;99.90;;;;;;5050813;28;20084;-64
2022/11/12 01:26:13;;;;;;;0.40;0.40;;;8.50;99.90;;;;;;5038908;28;20068;-64
2022/11/12 01:28:40;;;;;;;0.30;0.30;;;8.50;99.90;;;;;;5070737;28;20037;-64
2022/11/12 01:31:18;;;;;;;0.30;0.30;;;8.50;99.90;;;;;;5049681;28;20045;-64
2022/11/12 01:33:46;;;;;;;1.33;1.23;;;8.40;99.90;;;;;;5056293;28;20515;-64
2022/11/12 01:36:13;;;;;;;1.48;1.27;;;8.40;99.90;;;;;;5065287;28;20040;-64
2022/11/12 01:38:41;;;;;;;0.10;0.10;;;8.40;99.90;;;;;;5068993;28;20157;-64
2022/11/12 01:41:08;;;;;;;1.13;1.02;;;8.50;99.90;;;;;;5064836;28;20043;-64
2022/11/12 01:43:34;;;;;;;0.10;0.10;;;8.50;99.90;;;;;;5050207;28;20049;-64
2022/11/12 01:46:04;;;;;;;1.08;0.85;;;8.50;99.90;;;;;;5049519;28;20416;-64
2022/11/12 01:48:39;;;;;;;0.30;0.30;;;8.40;99.90;;;;;;5049915;28;20056;-64
2022/11/12 01:51:08;;;;;;;0.75;0.75;;;8.40;99.90;;;;;;5059134;28;20036;-64
2022/11/12 01:53:37;;;;;;;0.95;0.95;;;8.40;99.90;;;;;;5068863;28;20044;-64
2022/11/12 01:56:05;;;;;;;0.80;0.60;;;8.40;99.90;;;;;;5069878;28;20372;-64
2022/11/12 01:58:32;;;;;;;2.45;2.10;;;8.30;99.90;;;;;;5052910;28;20160;-64
2022/11/12 02:01:00;;;;;;;0.20;0.20;;;8.40;99.90;;;;;;5062473;28;20094;-64
2022/11/12 02:03:26;;;;;;;0.35;0.35;;;8.50;99.90;;;;;;5063922;28;20049;-64
2022/11/12 02:05:59;;;;;;;0.15;0.15;;;8.50;99.90;;;;;;5054435;28;20059;-64
2022/11/12 02:08:27;;;;;;;0.35;0.35;;;8.50;99.90;;;;;;5071455;28;20044;-64
2022/11/12 02:10:52;;;;;;;0.10;0.10;;;8.40;99.90;;;;;;5073365;28;20105;-64
2022/11/12 02:16:04;;;;;;;0.10;0.10;;;8.50;99.90;;;;;;5056538;28;20056;-64
2022/11/12 02:18:30;;;;;;;0.50;0.50;;;8.60;99.90;;;;;;5054174;28;20053;-64
2022/11/12 02:21:01;;;;;;;0.63;0.63;;;8.60;99.90;;;;;;5055562;28;20044;-63
2022/11/12 02:23:27;;;;;;;0.10;0.10;;;8.60;99.90;;;;;;5055664;28;20048;-63
2022/11/12 02:25:53;;;;;;;0.30;0.30;;;8.60;99.90;;;;;;5057508;28;20056;-64
2022/11/12 02:28:19;;;;;;;1.17;1.10;;;8.60;99.90;;;;;;5052270;28;20072;-64
2022/11/12 02:30:48;;;;;;;0.43;0.43;;;8.60;99.90;;;;;;5036080;28;20067;-64
2022/11/12 02:33:14;;;;;;;0.10;0.10;;;8.70;99.90;;;;;;5069788;28;20067;-64
2022/11/12 02:35:40;;;;;;;0.40;0.40;;;8.80;99.90;;;;;;5043313;28;20056;-64
2022/11/12 02:38:07;;;;;;;0.85;0.85;;;8.80;99.90;;;;;;5060758;28;20484;-64
2022/11/12 02:40:32;;;;;;;0.30;0.30;;;8.80;99.90;;;;;;5058512;28;20045;-64
2022/11/12 02:42:58;;;;;;;0.85;0.73;;;8.80;99.90;;;;;;5064768;28;20074;-64
2022/11/12 02:45:25;;;;;;;0.55;0.55;;;8.80;99.90;;;;;;5073998;28;20098;-64
2022/11/12 02:47:50;;;;;;;0.57;0.57;;;8.80;99.90;;;;;;5072907;28;20127;-64
2022/11/12 02:50:16;;;;;;;1.55;1.45;;;8.80;99.90;;;;;;5059665;28;20175;-64
2022/11/12 02:52:42;;;;;;;0.10;0.10;;;8.80;99.90;;;;;;5054111;28;20068;-64
2022/11/12 02:55:09;;;;;;;0.22;0.22;;;8.70;99.90;;;;;;5053270;28;20040;-64
2022/11/12 02:57:36;;;;;;;0.47;0.47;;;8.80;99.90;;;;;;5067159;28;20540;-64
2022/11/12 03:00:04;;;;;;;0.10;0.10;;;8.80;99.90;;;;;;5056041;28;20562;-64
2022/11/12 03:02:30;;;;;;;0.75;0.75;;;8.80;99.90;;;;;;5035152;28;20430;-64
2022/11/12 03:04:56;;;;;;;0.93;0.90;;;8.80;99.90;;;;;;5061320;28;20041;-64
2022/11/12 03:07:21;;;;;;;0.30;0.30;;;8.70;99.90;;;;;;5050077;28;20048;-64
2022/11/12 03:09:47;;;;;;;0.57;0.57;;;8.80;99.90;;;;;;5060996;28;20037;-64
2022/11/12 03:12:13;;;;;;;0.30;0.30;;;8.80;99.90;;;;;;5052891;28;20052;-64
2022/11/12 03:14:38;;;;;;;0.65;0.55;;;8.80;99.90;;;;;;5063730;28;20045;-64
2022/11/12 03:17:04;;;;;;;0.15;0.15;;;8.80;99.90;;;;;;5059109;28;20040;-64
2022/11/12 03:19:29;;;;;;;0.22;0.22;;;8.90;99.90;;;;;;5047730;28;20037;-64
2022/11/12 03:21:55;;;;;;;0.88;0.88;;;8.80;99.90;;;;;;5065311;28;20047;-64
2022/11/12 03:24:20;;;;;;;0.10;0.10;;;8.90;99.90;;;;;;5051445;28;20454;-64
2022/11/12 03:26:46;;;;;;;0.35;0.35;;;8.90;99.90;;;;;;5052337;28;20052;-64
2022/11/12 03:29:11;;;;;;;0.20;0.20;;;8.90;99.90;;;;;;5058300;28;20047;-64
2022/11/12 03:31:37;;;;;;;0.38;0.38;;;8.90;99.90;;;;;;5051642;28;20091;-64
2022/11/12 03:34:03;;;;;;;1.17;0.80;;;8.90;99.90;;;;;;5061668;28;20119;-64
2022/11/12 03:36:29;;;;;;;0.25;0.25;;;8.90;99.90;;;;;;5041521;28;20041;-64
2022/11/12 03:38:54;;;;;;;0.30;0.30;;;8.90;99.90;;;;;;5055753;28;20040;-64
2022/11/12 03:41:20;;;;;;;0.10;0.10;;;8.90;99.90;;;;;;5071019;28;20052;-64
2022/11/12 03:43:45;;;;;;;6.03;0.63;;;9.00;99.90;;;;;;5051457;28;20119;-64
2022/11/12 03:46:11;;;;;;;0.40;0.22;;;8.90;99.90;;;;;;5050598;28;20097;-64
2022/11/12 03:48:37;;;;;;;0.45;0.32;;;8.90;99.90;;;;;;5055840;28;20056;-64
2022/11/12 03:51:02;;;;;;;0.10;0.10;;;8.90;99.90;;;;;;5056029;28;20094;-64
2022/11/12 03:53:28;;;;;;;0.15;0.15;;;8.90;99.90;;;;;;5051476;28;20504;-64
2022/11/12 03:55:53;;;;;;;0.63;0.63;;;8.90;99.90;;;;;;5052218;28;20041;-64
2022/11/12 03:58:19;;;;;;;1.40;0.90;;;8.90;99.90;;;;;;5034358;28;20047;-64
2022/11/12 04:00:44;;;;;;;2.13;1.95;;;8.90;99.90;;;;;;5053733;28;20088;-64
2022/11/12 04:03:10;;;;;;;0.85;0.85;;;8.90;99.90;;;;;;5056271;28;20040;-64
2022/11/12 04:08:37;;;;;;;0.20;0.20;;;8.90;99.90;;;;;;5069983;28;20047;-64
2022/11/12 04:11:11;;;;;;;0.47;0.47;;;8.90;99.90;;;;;;5051264;28;20103;-64
2022/11/12 04:13:38;;;;;;;0.08;0.08;;;8.90;99.90;;;;;;5050099;28;20044;-64
2022/11/12 04:21:54;;;;;;;0.17;0.17;;;9.00;99.90;;;;;;5064752;28;20162;-64
2022/11/12 04:27:06;;;;;;;0.77;0.77;;;9.00;99.90;;;;;;5049994;28;20462;-64
2022/11/12 04:32:16;;;;;;;0.43;0.43;;;9.00;99.90;;;;;;5058735;28;20049;-64
2022/11/12 04:34:42;;;;;;;0.47;0.47;;;9.00;99.90;;;;;;5058353;28;20041;-64
2022/11/12 04:37:08;;;;;;;10.32;1.95;;;9.00;99.90;;;;;;5051783;28;20381;-64
2022/11/12 04:39:33;;;;;;;1.73;1.50;;;9.00;99.90;;;;;;5046627;28;20068;-64
2022/11/12 04:47:35;;;;;;;2.70;2.50;;;9.10;99.90;;;;;;5054404;28;20084;-64
2022/11/12 04:50:06;;;;;;;4.18;1.48;;;9.10;99.90;;;;;;5066346;28;20051;-64
2022/11/12 04:52:31;;;;;;;0.20;0.20;;;9.10;99.90;;;;;;5071552;28;20068;-64
2022/11/12 04:54:58;;;;;;;0.10;0.10;;;9.10;99.90;;;;;;5064925;28;20072;-64
2022/11/12 04:57:25;;;;;;;0.60;0.60;;;9.10;99.90;;;;;;5054492;28;20047;-64
2022/11/12 04:59:50;;;;;;;0.10;0.10;;;9.20;99.90;;;;;;5070615;28;20051;-64
2022/11/12 05:02:16;;;;;;;0.65;0.65;;;9.10;99.90;;;;;;5058774;28;20454;-64
2022/11/12 05:04:42;;;;;;;0.17;0.17;;;9.20;99.90;;;;;;5056048;28;20474;-64
2022/11/12 05:07:08;;;;;;;0.63;0.63;;;9.20;99.90;;;;;;5057834;28;20116;-64
2022/11/12 05:09:34;;;;;;;2.03;0.55;;;9.20;99.90;;;;;;5056171;28;20515;-64
2022/11/12 05:12:01;;;;;;;0.10;0.10;;;9.20;99.90;;;;;;5069007;28;20052;-64
2022/11/12 05:14:26;;;;;;;0.20;0.20;;;9.20;99.90;;;;;;5062516;28;20043;-64
2022/11/12 05:16:52;;;;;;;0.68;0.35;;;9.30;99.90;;;;;;5057475;28;20041;-64
2022/11/12 05:19:18;;;;;;;0.85;0.73;;;9.20;99.90;;;;;;5063758;28;20045;-64
2022/11/12 05:24:29;;;;;;;0.70;0.63;;;9.30;99.90;;;;;;5051646;28;20057;-64
2022/11/12 05:26:54;;;;;;;0.70;0.70;;;9.30;99.90;;;;;;5070196;28;20576;-64
2022/11/12 05:29:20;;;;;;;0.10;0.10;;;9.30;99.90;;;;;;5060673;28;20508;-64
2022/11/12 05:31:46;;;;;;;0.28;0.28;;;9.30;99.90;;;;;;5053022;28;20511;-64
2022/11/12 05:34:12;;;;;;;0.20;0.20;;;9.30;99.90;;;;;;5066308;28;20045;-64
2022/11/12 05:36:37;;;;;;;0.15;0.15;;;9.30;99.90;;;;;;5070276;28;20044;-64
2022/11/12 05:39:03;;;;;;;0.40;0.40;;;9.30;99.90;;;;;;5050348;28;20044;-64
2022/11/12 05:41:29;;;;;;;0.32;0.32;;;9.40;99.90;;;;;;5050157;28;20492;-64
2022/11/12 05:43:55;;;;;;;0.10;0.10;;;9.40;99.90;;;;;;5050154;28;20511;-64
2022/11/12 05:46:20;;;;;;;0.28;0.28;;;9.40;99.90;;;;;;5054232;28;20052;-64
2022/11/12 05:48:46;;;;;;;0.17;0.17;;;9.40;99.90;;;;;;5053106;28;20037;-64
2022/11/12 05:51:12;;;;;;;0.10;0.10;;;9.40;99.90;;;;;;5066256;28;20110;-64
2022/11/12 05:53:39;;;;;;;1.83;1.73;;;9.40;99.90;;;;;;5070135;28;20044;-64
2022/11/12 05:56:06;;;;;;;1.13;1.08;;;9.40;99.90;;;;;;5069096;28;20048;-64
2022/11/12 05:58:32;;;;;;;0.43;0.40;;;9.40;99.90;;;;;;5059111;28;20045;-63
2022/11/12 06:00:58;;;;;;;0.17;0.17;;;9.30;99.90;;;;;;5056859;28;20049;-64
2022/11/12 06:03:24;;;;;;;0.40;0.40;;;9.30;99.90;;;;;;5052387;28;20040;-64
2022/11/12 06:05:51;;;;;;;1.20;1.20;;;9.30;99.90;;;;;;5068365;28;20132;-64
2022/11/12 06:08:17;;;;;;;0.80;0.80;;;9.40;99.90;;;;;;5052191;28;20947;-64
2022/11/12 06:10:56;;;;;;;0.60;0.60;;;9.40;99.90;;;;;;5061117;28;20066;-64
2022/11/12 06:13:24;;;;;;;1.30;1.23;;;9.40;99.90;;;;;;5049382;28;20110;-64
2022/11/12 06:15:50;;;;;;;0.93;0.85;;;9.40;99.90;;;;;;5065557;28;20047;-64
2022/11/12 06:18:16;;;;;;;1.13;1.13;;;9.40;99.90;;;;;;5069383;28;20055;-64
2022/11/12 06:20:41;;;;;;;2.30;1.13;;;9.40;99.90;;;;;;5059270;28;20041;-64
2022/11/12 06:23:07;;;;;;;1.58;0.43;;;9.40;99.90;;;;;;5051992;28;20041;-64
2022/11/12 06:25:33;;;;;;;2.45;0.85;;;9.40;99.90;;;;;;5049239;28;20053;-64
2022/11/12 06:27:58;;;;;;;2.75;0.90;;;9.40;99.90;;;;;;5062154;28;20068;-64
2022/11/12 06:30:24;;;;;;;1.45;1.35;;;9.40;99.90;;;;;;5068718;28;20492;-64
2022/11/12 06:32:50;;;;;;;0.22;0.17;;;9.40;99.90;;;;;;5052137;28;20057;-64
2022/11/12 06:35:17;;;;;;;0.20;0.20;;;9.40;99.90;;;;;;5054801;28;20123;-64
2022/11/12 06:37:46;;;;;;;2.00;0.90;;;9.40;99.90;;;;;;5062537;28;20037;-64
2022/11/12 06:40:12;;;;;;;0.35;0.35;;;9.40;99.90;;;;;;5050732;28;20053;-64
2022/11/12 06:42:38;;;;;;;1.52;1.23;;;9.40;99.90;;;;;;5067875;28;20059;-64
2022/11/12 06:45:04;;;;;;;0.43;0.43;;;9.40;99.90;;;;;;5063204;28;20413;-64
2022/11/12 06:47:30;;;;;;;1.67;0.82;;;9.40;99.90;;;;;;5048939;28;20091;-64
2022/11/12 06:49:55;;;;;;;0.75;0.75;;;9.40;99.90;;;;;;5048712;28;20045;-64
2022/11/12 06:52:21;;;;;;;0.90;0.90;;;9.40;99.90;;;;;;5035197;28;20048;-64
2022/11/12 06:54:46;;;;;;;0.30;0.30;;;9.40;99.90;;;;;;5033822;28;20396;-64
2022/11/12 06:57:12;;;;;;;0.88;0.85;;;9.40;99.90;;;;;;5059984;28;20399;-64
2022/11/12 06:59:37;;;;;;;0.10;0.10;;;9.40;99.90;;;;;;5073035;28;20369;-64
2022/11/12 07:02:04;;;;;;;3.50;2.58;;;9.40;99.90;;;;;;5059614;28;20033;-64
2022/11/12 07:04:30;;;;;;;1.98;1.33;;;9.40;99.90;;;;;;5053241;28;20125;-64
2022/11/12 07:06:55;;;;;;;1.30;1.20;;;9.40;99.90;;;;;;5044583;28;20136;-64
2022/11/12 07:09:21;;;;;;;0.40;0.40;;;9.40;99.90;;;;;;5070995;28;20053;-64
2022/11/12 07:11:46;;;;;;;0.73;0.73;;;9.40;99.90;;;;;;5071370;28;20082;-64
2022/11/12 07:14:12;;;;;;;1.05;1.05;;;9.40;99.90;;;;;;5066064;28;20572;-64
2022/11/12 07:16:37;;;;;;;0.40;0.40;;;9.30;99.90;;;;;;5056803;28;20488;-64
2022/11/12 07:19:03;;;;;;;0.45;0.45;;;9.30;99.90;;;;;;5054950;28;20472;-64
2022/11/12 07:21:28;;;;;;;5.10;1.08;;;9.30;99.90;;;;;;5045427;28;20117;-64
2022/11/12 07:23:54;;;;;;;0.35;0.35;;;9.40;99.90;;;;;;5072134;28;20048;-64
2022/11/12 07:26:22;;;;;;;0.30;0.30;;;9.40;99.90;;;;;;5066370;28;20040;-64
2022/11/12 07:28:49;;;;;;;1.02;1.02;;;9.40;99.90;;;;;;5054116;28;20045;-64
2022/11/12 07:31:16;;;;;;;0.40;0.40;;;9.40;99.90;;;;;;5060045;28;20044;-64
2022/11/12 07:33:42;;;;;;;0.50;0.50;;;9.40;99.90;;;;;;5072308;28;20071;-63
2022/11/12 07:36:11;;;;;;;0.73;0.73;;;9.40;99.90;;;;;;5069684;28;20033;-64
2022/11/12 07:38:38;;;;;;;0.20;0.20;;;9.40;99.90;;;;;;5061497;28;20051;-63
2022/11/12 07:41:07;;;;;;;0.55;0.55;;;9.40;99.90;;;;;;5070087;28;20136;-64
2022/11/12 07:43:34;;;;;;;0.73;0.73;;;9.30;99.90;;;;;;5071588;28;20046;-62
2022/11/12 07:46:06;;;;;;;0.98;0.90;;;9.30;99.90;;;;;;5071257;28;20036;-64
2022/11/12 07:48:32;;;;;;;0.68;0.68;;;9.30;99.90;;;;;;5051972;28;20052;-64
2022/11/12 07:51:03;;;;;;;0.20;0.20;;;9.30;99.90;;;;;;5066012;28;20048;-64
2022/11/12 07:53:29;;;;;;;0.40;0.40;;;9.30;99.90;;;;;;5070550;28;20553;-64
2022/11/12 07:55:57;;;;;;;6.13;0.75;;;9.30;99.90;;;;;;5066495;28;20049;-64
2022/11/12 07:58:23;;;;;;;0.47;0.47;;;9.30;99.90;;;;;;5033217;28;20049;-63
2022/11/12 08:00:49;;;;;;;0.63;0.63;;;9.30;99.90;;;;;;5051990;28;20049;-64
2022/11/12 08:03:15;;;;;;;2.05;1.20;;;9.30;99.90;;;;;;5050583;28;20179;-63
2022/11/12 08:05:41;;;;;;;1.52;1.00;;;9.30;99.90;;;;;;5055190;28;20064;-63
2022/11/12 08:08:06;;;;;;;0.95;0.95;;;9.30;99.90;;;;;;5069875;28;20127;-64
2022/11/12 08:10:32;;;;;;;0.35;0.35;;;9.20;99.90;;;;;;5070280;28;20076;-63
2022/11/12 08:12:58;;;;;;;0.40;0.40;;;9.20;99.90;;;;;;5061475;28;20472;-64
2022/11/12 08:15:23;;;;;;;3.38;1.38;;;9.30;99.90;;;;;;5046207;28;20066;-64
2022/11/12 08:17:49;;;;;;;0.80;0.73;;;9.30;99.90;;;;;;5070501;28;20032;-63
2022/11/12 08:20:14;;;;;;;0.45;0.45;;;9.30;99.90;;;;;;5048105;28;20057;-64
2022/11/12 08:22:40;;;;;;;0.30;0.30;;;9.30;99.90;;;;;;5060419;28;20036;-64
2022/11/12 08:25:06;;;;;;;0.10;0.10;;;9.30;99.90;;;;;;5052766;28;20094;-64
2022/11/12 08:27:32;;;;;;;1.02;0.98;;;9.30;99.90;;;;;;5037710;28;20523;-63
2022/11/12 08:29:58;;;;;;;0.10;0.10;;;9.20;99.90;;;;;;5063787;28;20119;-64
2022/11/12 08:32:24;;;;;;;0.82;0.82;;;9.20;99.90;;;;;;5055925;28;20061;-64
2022/11/12 08:34:49;;;;;;;0.50;0.50;;;9.20;99.90;;;;;;5056909;28;20136;-64
2022/11/12 08:37:15;;;;;;;1.02;0.82;;;9.10;99.90;;;;;;5057946;28;20119;-64
2022/11/12 08:39:41;;;;;;;0.08;0.08;;;9.10;99.90;;;;;;5056572;28;20128;-63
2022/11/12 08:42:06;;;;;;;0.57;0.57;;;9.10;99.90;;;;;;5061321;28;20123;-64
2022/11/12 08:44:32;;;;;;;0.77;0.65;;;9.10;99.90;;;;;;5039896;28;20045;-63
2022/11/12 08:46:58;;;;;;;0.43;0.43;;;9.20;99.90;;;;;;5059039;28;20483;-64
2022/11/12 08:49:24;;;;;;;0.93;0.47;;;9.10;99.90;;;;;;5069223;28;20551;-63
2022/11/12 08:51:50;;;;;;;1.65;0.82;;;9.10;99.90;;;;;;5062820;28;20048;-64
2022/11/12 08:54:16;;;;;;;0.22;0.22;;;9.20;99.90;;;;;;5051804;28;20041;-64
2022/11/12 08:56:41;;;;;;;0.35;0.35;;;9.10;99.90;;;;;;5051272;28;20047;-64
2022/11/12 08:59:07;;;;;;;0.70;0.70;;;9.20;99.90;;;;;;5050085;28;20041;-64
2022/11/12 09:01:33;;;;;;;0.95;0.95;;;9.20;99.90;;;;;;5052193;28;20036;-63
2022/11/12 09:03:58;;;;;;;1.35;1.27;;;9.20;99.90;;;;;;5058894;28;20037;-64
2022/11/12 09:06:24;;;;;;;0.40;0.40;;;9.20;99.90;;;;;;5050294;28;20041;-63
2022/11/12 09:08:50;;;;;;;0.57;0.57;;;9.20;99.90;;;;;;5050289;28;20045;-64
2022/11/12 09:11:16;;;;;;;1.27;1.17;;;9.20;99.90;;;;;;5065016;28;20041;-64
2022/11/12 09:13:42;;;;;;;0.77;0.77;;;9.10;99.90;;;;;;5058116;28;20056;-64
2022/11/12 09:16:08;;;;;;;0.50;0.50;;;9.20;99.90;;;;;;5058008;28;20029;-63
2022/11/12 09:18:35;;;;;;;1.55;0.57;;;9.10;99.90;;;;;;5060145;28;20057;-64
2022/11/12 09:21:07;;;;;;;0.10;0.10;;;9.10;99.90;;;;;;5069802;28;20131;-64
2022/11/12 09:23:34;;;;;;;0.55;0.43;;;9.10;99.90;;;;;;5061059;28;20095;-64
2022/11/12 09:26:00;;;;;;;0.70;0.70;;;9.20;99.90;;;;;;5055377;28;20123;-64
2022/11/12 09:28:26;;;;;;;1.90;1.25;;;9.10;99.90;;;;;;5070544;28;20388;-64
2022/11/12 09:30:53;;;;;;;1.25;1.15;;;9.10;99.90;;;;;;5068949;28;20032;-64
2022/11/12 09:33:24;;;;;;;1.30;0.70;;;9.20;99.90;;;;;;5069003;28;20471;-64
2022/11/12 09:35:50;;;;;;;0.20;0.20;;;9.10;99.90;;;;;;5062239;28;20085;-64
2022/11/12 09:38:17;;;;;;;1.45;0.63;;;9.10;99.90;;;;;;5031363;28;20045;-64
2022/11/12 09:40:51;;;;;;;0.25;0.25;;;9.10;99.90;;;;;;5043651;28;20091;-63
2022/11/12 09:43:37;;;;;;;0.10;0.10;;;9.10;99.90;;;;;;5056284;28;20052;-64
2022/11/12 09:46:18;;;;;;;1.60;1.17;;;9.00;99.90;;;;;;5056293;28;20083;-64
2022/11/12 09:48:50;;;;;;;0.30;0.30;;;9.00;99.90;;;;;;5059520;28;20052;-64
2022/11/12 09:51:31;;;;;;;0.40;0.40;;;8.90;99.90;;;;;;5060656;28;20814;-64
2022/11/12 09:54:12;;;;;;;0.65;0.65;;;8.90;99.90;;;;;;5059676;28;20040;-64
2022/11/12 09:56:38;;;;;;;0.15;0.15;;;8.90;99.90;;;;;;5059611;28;20052;-64
2022/11/12 09:59:10;;;;;;;0.85;0.40;;;8.90;99.90;;;;;;5061659;28;20080;-64
2022/11/12 10:01:45;;;;;;;1.98;1.17;;;8.90;99.90;;;;;;5062032;28;20577;-64
2022/11/12 10:04:39;;;;;;;0.65;0.65;;;8.90;99.90;;;;;;5060297;28;20037;-64
2022/11/12 10:07:25;;;;;;;0.60;0.60;;;8.90;99.90;;;;;;5066859;28;20051;-65
2022/11/12 10:10:15;;;;;;;0.52;0.52;;;8.80;99.90;;;;;;5070502;28;20522;-65
2022/11/12 10:13:13;;;;;;;1.65;0.57;;;8.90;99.90;;;;;;5063156;28;20032;-64
2022/11/12 10:19:09;;;;;;;1.05;0.85;;;8.90;99.90;;;;;;5057479;28;20049;-64
2022/11/12 10:21:56;;;;;;;0.55;0.55;;;8.90;99.90;;;;;;5056930;28;20049;-64
2022/11/12 10:24:23;;;;;;;0.47;0.47;;;8.90;99.90;;;;;;5058409;28;20098;-64
2022/11/12 10:26:51;;;;;;;0.30;0.30;;;8.80;99.90;;;;;;5065979;28;20056;-64
2022/11/12 10:29:50;;;;;;;8.95;1.85;;;8.90;99.90;;;;;;5058556;28;20415;-64
2022/11/12 10:32:15;;;;;;;0.50;0.50;;;8.90;99.90;;;;;;5065998;28;20098;-64
2022/11/12 10:34:41;;;;;;;0.22;0.22;;;8.80;99.90;;;;;;5064341;28;20037;-64
2022/11/12 10:37:20;;;;;;;0.15;0.15;;;8.90;99.90;;;;;;5064740;28;20115;-64
2022/11/12 10:39:46;;;;;;;0.10;0.10;;;8.80;99.90;;;;;;5057106;28;20377;-64
2022/11/12 10:42:22;;;;;;;0.20;0.20;;;8.80;99.90;;;;;;5052817;28;20107;-64
2022/11/12 10:44:48;;;;;;;0.60;0.60;;;8.80;99.90;;;;;;5055719;28;20399;-64
2022/11/12 10:47:25;;;;;;;0.52;0.52;;;8.70;99.90;;;;;;5063805;28;20047;-64
2022/11/12 10:50:16;;;;;;;0.95;0.93;;;8.80;99.90;;;;;;5071659;28;20063;-64
2022/11/12 10:52:57;;;;;;;3.83;0.80;;;8.90;99.90;;;;;;5054495;28;20045;-64
2022/11/12 10:55:25;;;;;;;0.88;0.88;;;8.90;99.90;;;;;;5043483;28;21023;-64
2022/11/12 10:58:15;;;;;;;0.65;0.65;;;8.90;99.90;;;;;;5035771;28;20124;-64
2022/11/12 11:01:02;;;;;;;0.20;0.20;;;8.90;99.90;;;;;;5068463;28;20095;-65
2022/11/12 11:03:32;;;;;;;0.75;0.45;;;8.80;99.90;;;;;;5073077;28;20051;-64
2022/11/12 11:06:02;;;;;;;0.90;0.90;;;8.90;99.90;;;;;;5054869;28;20135;-64
2022/11/12 11:08:41;;;;;;;0.32;0.32;;;8.80;99.90;;;;;;5052032;28;20040;-64
2022/11/12 11:11:15;;;;;;;1.63;1.20;;;8.90;99.90;;;;;;5056532;28;20032;-64
2022/11/12 11:13:41;;;;;;;0.28;0.28;;;9.00;99.90;;;;;;5067903;28;20047;-64
2022/11/12 11:16:11;;;;;;;3.40;1.02;;;9.00;99.90;;;;;;5039341;28;20048;-65
2022/11/12 11:18:39;;;;;;;0.60;0.60;;;8.90;99.90;;;;;;5073525;28;20133;-65
2022/11/12 11:21:08;;;;;;;2.00;1.83;;;9.00;99.90;;;;;;5071139;28;20049;-65
2022/11/12 11:23:38;;;;;;;3.40;1.20;;;9.00;99.90;;;;;;5054184;28;20045;-65
2022/11/12 11:26:18;;;;;;;0.50;0.50;;;9.00;99.90;;;;;;5052547;28;20076;-65
2022/11/12 11:28:55;;;;;;;0.43;0.43;;;9.10;99.90;;;;;;5061613;28;20395;-65
2022/11/12 11:31:28;;;;;;;0.50;0.50;;;9.20;99.90;;;;;;5057664;28;20084;-65
2022/11/12 11:34:23;;;;;;;0.50;0.50;;;9.20;99.90;;;;;;5073239;28;20044;-65
2022/11/12 11:37:07;;;;;;;0.65;0.52;;;9.20;99.90;;;;;;5052523;28;20051;-64
2022/11/12 11:39:46;;;;;;;0.55;0.55;;;9.30;99.90;;;;;;5065911;28;20048;-65
2022/11/12 11:42:26;;;;;;;0.45;0.45;;;9.30;99.90;;;;;;5057178;28;20055;-64
2022/11/12 11:44:57;;;;;;;0.22;0.22;;;9.30;99.90;;;;;;5036269;28;20048;-64
2022/11/12 11:47:41;;;;;;;0.30;0.30;;;9.40;99.90;;;;;;5052564;28;20073;-64
2022/11/12 11:50:27;;;;;;;1.30;1.20;;;9.40;99.90;;;;;;5060181;28;20072;-64
2022/11/12 11:53:11;;;;;;;1.17;1.08;;;9.50;99.90;;;;;;5057519;28;20041;-64
2022/11/12 11:55:49;;;;;;;0.60;0.60;;;9.50;99.90;;;;;;5060103;28;20098;-64
2022/11/12 11:58:33;;;;;;;0.20;0.20;;;9.50;99.90;;;;;;5059010;28;20041;-64
2022/11/12 12:00:59;;;;;;;0.52;0.52;;;9.60;99.90;;;;;;5058642;28;20083;-65
2022/11/12 12:03:35;;;;;;;0.43;0.43;;;9.70;99.90;;;;;;5052401;28;20477;-64
2022/11/12 12:06:15;;;;;;;2.35;2.22;;;9.70;99.90;;;;;;5058419;28;20403;-64
2022/11/12 12:09:00;;;;;;;1.42;1.17;;;9.80;99.90;;;;;;5071445;28;20102;-64
2022/11/12 12:11:29;;;;;;;0.60;0.60;;;9.70;99.90;;;;;;5061036;28;20045;-64
2022/11/12 12:14:16;;;;;;;3.00;2.20;;;9.80;99.90;;;;;;5052029;28;20056;-64
2022/11/12 12:16:55;;;;;;;0.30;0.30;;;9.80;99.90;;;;;;5052010;28;20045;-64
2022/11/12 12:19:39;;;;;;;1.25;1.00;;;9.90;99.90;;;;;;5050175;28;20048;-64
2022/11/12 12:22:10;;;;;;;0.75;0.75;;;9.90;99.90;;;;;;5050569;28;20491;-64
2022/11/12 12:24:48;;;;;;;0.55;0.55;;;9.90;99.90;;;;;;5053028;28;20068;-65
2022/11/12 12:28:06;;;;;;;0.47;0.47;;;9.90;99.90;;;;;;5069203;28;20506;-65
2022/11/12 12:30:38;;;;;;;1.17;1.17;;;9.90;99.90;;;;;;5024616;28;20085;-65
2022/11/12 12:33:27;;;;;;;0.90;0.90;;;10.00;99.90;;;;;;5056142;28;20044;-64
2022/11/12 12:36:22;;;;;;;0.40;0.40;;;10.00;99.90;;;;;;5051929;28;20055;-65
2022/11/12 12:38:51;;;;;;;2.08;1.98;;;10.10;99.90;;;;;;5052785;28;20124;-65
2022/11/12 12:41:28;;;;;;;2.03;1.77;;;10.10;99.90;;;;;;5065085;28;20205;-64
2022/11/12 12:44:03;;;;;;;1.95;0.98;;;10.20;99.90;;;;;;5050172;28;20080;-65
2022/11/12 12:46:33;;;;;;;5.38;2.00;;;10.20;99.90;;;;;;5050815;28;20400;-65
2022/11/12 12:49:02;;;;;;;0.70;0.70;;;10.20;99.90;;;;;;5049694;28;20052;-64
2022/11/12 12:51:29;;;;;;;8.38;2.22;;;10.20;99.90;;;;;;5065042;28;20059;-65
2022/11/12 12:53:55;;;;;;;1.10;1.10;;;10.20;99.90;;;;;;5052289;28;20060;-64
2022/11/12 12:56:21;;;;;;;0.60;0.60;;;10.20;99.90;;;;;;5049055;28;20045;-65
2022/11/12 12:58:47;;;;;;;0.80;0.80;;;10.30;99.90;;;;;;5071333;28;20506;-64
2022/11/12 13:01:22;;;;;;;3.70;0.95;;;10.30;99.90;;;;;;5054894;28;20124;-64
2022/11/12 13:04:07;;;;;;;1.67;1.05;;;10.30;99.90;;;;;;5050912;28;20055;-65
2022/11/12 13:06:44;;;;;;;0.85;0.85;;;10.30;99.90;;;;;;5053883;28;20560;-64
2022/11/12 13:09:13;;;;;;;0.50;0.50;;;10.40;99.90;;;;;;5069370;28;20083;-65
2022/11/12 13:14:35;;;;;;;1.10;1.10;;;10.30;99.90;;;;;;5063047;28;20490;-64
2022/11/12 13:17:10;;;;;;;1.48;1.38;;;10.40;99.90;;;;;;5055799;28;20056;-65
2022/11/12 13:19:57;;;;;;;0.25;0.25;;;10.40;99.90;;;;;;5050629;28;20037;-64
2022/11/12 13:22:23;;;;;;;1.25;1.17;;;10.40;99.90;;;;;;5052605;28;20049;-64
2022/11/12 13:25:07;;;;;;;2.15;2.05;;;10.50;99.90;;;;;;5033011;28;20393;-65
2022/11/12 13:27:53;;;;;;;;;;;10.40;99.90;;;;;;5052212;28;20041;-65
2022/11/12 13:30:21;;;;;;;0.90;0.90;;;10.30;99.90;;;;;;5054606;28;19924;-64
2022/11/12 13:32:47;;;;;;;0.98;0.98;;;10.30;99.90;;;;;;5069402;28;20408;-64
2022/11/12 13:35:19;;;;;;;0.80;0.75;;;10.40;99.90;;;;;;5070029;28;20049;-65
2022/11/12 13:38:14;;;;;;;5.05;2.13;;;10.40;99.90;;;;;;5049700;28;20098;-65